McBaine, Missouri
Current Conditions -  °F | °C
As of 8:54 PM on Saturday 20 Dec 2014 (Local Time) from KCOU Reporting Station
Overcast Overcast  
Wind Chill: 36°   Ceiling: 2200
Heat Index: 40°   Visibility: 10mi
Dew Point: 36°   Wind: 6mph
Humidity: 86%   Direction: 160°SSE
Pressure: 30.2"   Gusts: NA
Location:  38.895°N, 92.3958°W
Report Text: KCOU 210254Z 16005KT 10SM OVC022 04/02 A3020 RMK AO2 SLP231 T00440022 50000
Loading
Personal Weather Stations






























Interactive Weather Map New forecast layout! Learn more

10-Day Weather Forecast

Advertisements
Track Severe Weather on mobile